createdAt,value
2022-12-27T00:00:00.772Z,6.20
2022-12-27T00:02:27.831Z,6.10
2022-12-27T00:04:54.880Z,6.00
2022-12-27T00:07:21.871Z,7.07
2022-12-27T00:09:48.814Z,5.43
2022-12-27T00:12:15.821Z,5.70
2022-12-27T00:14:42.793Z,7.10
2022-12-27T00:17:09.974Z,7.80
2022-12-27T00:19:37.024Z,6.47
2022-12-27T00:22:05.351Z,6.03
2022-12-27T00:24:32.348Z,9.65
2022-12-27T00:26:59.298Z,5.70
2022-12-27T00:29:26.477Z,7.82
2022-12-27T00:31:53.593Z,6.20
2022-12-27T00:34:20.715Z,5.55
2022-12-27T00:36:47.701Z,5.67
2022-12-27T00:39:14.800Z,6.38
2022-12-27T00:41:41.897Z,7.82
2022-12-27T00:44:09.130Z,7.03
2022-12-27T00:46:36.115Z,6.75
2022-12-27T00:49:03.558Z,4.40
2022-12-27T00:51:30.593Z,5.78
2022-12-27T00:53:57.768Z,6.80
2022-12-27T00:56:30.107Z,6.82
2022-12-27T00:59:04.400Z,5.20
2022-12-27T01:01:36.127Z,5.85
2022-12-27T01:04:04.959Z,6.68
2022-12-27T01:06:34.910Z,6.18
2022-12-27T01:09:03.679Z,6.28
2022-12-27T01:11:32.243Z,6.13
2022-12-27T01:14:02.611Z,6.88
2022-12-27T01:16:31.509Z,5.78
2022-12-27T01:18:59.853Z,7.87
2022-12-27T01:21:30.693Z,7.67
2022-12-27T01:23:58.375Z,5.15
2022-12-27T01:26:26.062Z,6.20
2022-12-27T01:28:53.919Z,5.28
2022-12-27T01:31:25.517Z,7.18
2022-12-27T01:34:00.235Z,5.60
2022-12-27T01:36:29.508Z,5.90
2022-12-27T01:38:57.296Z,5.78
2022-12-27T01:41:47.326Z,5.45
2022-12-27T01:44:40.468Z,6.47
2022-12-27T01:47:34.144Z,6.18
2022-12-27T01:50:15.343Z,5.68
2022-12-27T01:53:10.262Z,6.18
2022-12-27T01:55:52.183Z,4.82
2022-12-27T01:59:02.565Z,4.28
2022-12-27T02:01:44.023Z,5.45
2022-12-27T02:04:18.748Z,5.65
2022-12-27T02:06:47.423Z,4.00
2022-12-27T02:09:39.639Z,5.85
2022-12-27T02:12:09.164Z,6.00
2022-12-27T02:14:49.808Z,5.85
2022-12-27T02:17:28.986Z,5.35
2022-12-27T02:20:19.426Z,6.13
2022-12-27T02:23:26.403Z,7.30
2022-12-27T02:26:11.290Z,6.65
2022-12-27T02:28:59.808Z,4.45
2022-12-27T02:32:05.366Z,7.13
2022-12-27T02:34:57.430Z,4.13
2022-12-27T02:37:29.279Z,4.78
2022-12-27T02:40:19.727Z,5.07
2022-12-27T02:43:06.768Z,6.30
2022-12-27T02:46:04.249Z,3.55
2022-12-27T02:48:49.829Z,4.65
2022-12-27T02:51:54.785Z,4.32
2022-12-27T02:54:38.204Z,5.15
2022-12-27T02:57:51.622Z,5.20
2022-12-27T03:00:40.681Z,3.28
2022-12-27T03:03:54.395Z,4.13
2022-12-27T03:07:08.683Z,4.68
2022-12-27T03:10:02.781Z,4.28
2022-12-27T03:13:17.719Z,4.32
2022-12-27T03:16:08.835Z,5.22
2022-12-27T03:19:03.804Z,5.03
2022-12-27T03:21:59.440Z,3.75
2022-12-27T03:24:50.995Z,5.23
2022-12-27T03:27:30.312Z,4.93
2022-12-27T03:30:19.542Z,4.13
2022-12-27T03:33:13.796Z,4.43
2022-12-27T03:36:09.651Z,4.30
2022-12-27T03:39:00.313Z,5.75
2022-12-27T03:41:54.948Z,4.68
2022-12-27T03:44:24.860Z,4.78
2022-12-27T03:47:05.576Z,6.50
2022-12-27T03:49:50.547Z,4.82
2022-12-27T03:52:33.454Z,4.03
2022-12-27T03:55:01.569Z,5.65
2022-12-27T03:57:29.423Z,3.88
2022-12-27T03:59:56.509Z,4.40
2022-12-27T04:02:24.785Z,4.45
2022-12-27T04:04:51.985Z,3.08
2022-12-27T04:07:18.951Z,5.45
2022-12-27T04:10:04.551Z,3.42
2022-12-27T04:12:50.297Z,4.45
2022-12-27T04:15:35.877Z,3.40
2022-12-27T04:18:21.662Z,4.30
2022-12-27T04:21:07.097Z,3.30
2022-12-27T04:23:52.514Z,3.33
2022-12-27T04:26:37.896Z,5.00
2022-12-27T04:29:23.463Z,4.53
2022-12-27T04:32:09.076Z,5.32
2022-12-27T04:34:44.899Z,2.60
2022-12-27T04:37:16.463Z,5.70
2022-12-27T04:40:03.850Z,2.65
2022-12-27T04:42:49.508Z,3.35
2022-12-27T04:45:35.145Z,4.47
2022-12-27T04:48:21.157Z,3.38
2022-12-27T04:51:06.657Z,5.18
2022-12-27T04:53:52.090Z,3.15
2022-12-27T04:56:19.036Z,6.10
2022-12-27T04:59:15.248Z,4.70
2022-12-27T05:02:01.152Z,3.35
2022-12-27T05:04:28.382Z,4.07
2022-12-27T05:06:56.089Z,5.05
2022-12-27T05:09:42.285Z,5.75
2022-12-27T05:12:29.719Z,5.75
2022-12-27T05:14:56.808Z,4.45
2022-12-27T05:17:23.782Z,6.38
2022-12-27T05:19:50.741Z,5.35
2022-12-27T05:22:36.190Z,6.32
2022-12-27T05:25:21.989Z,4.32
2022-12-27T05:27:49.016Z,4.83
2022-12-27T05:30:15.971Z,5.65
2022-12-27T05:32:42.999Z,4.63
2022-12-27T05:35:10.005Z,3.40
2022-12-27T05:37:36.946Z,4.20
2022-12-27T05:40:04.713Z,3.05
2022-12-27T05:42:32.084Z,3.85
2022-12-27T05:44:59.060Z,5.20
2022-12-27T05:47:26.073Z,4.30
2022-12-27T05:49:53.051Z,4.35
2022-12-27T05:52:20.065Z,5.80
2022-12-27T05:54:47.127Z,4.67
2022-12-27T05:57:14.183Z,4.75
2022-12-27T05:59:41.122Z,4.30
2022-12-27T06:02:08.315Z,4.77
2022-12-27T06:04:35.360Z,5.78
2022-12-27T06:07:02.366Z,4.40
2022-12-27T06:09:29.455Z,5.38
2022-12-27T06:11:56.536Z,5.38
2022-12-27T06:14:23.659Z,6.72
2022-12-27T06:16:50.643Z,6.40
2022-12-27T06:19:17.608Z,4.75
2022-12-27T06:21:44.715Z,4.68
2022-12-27T06:24:11.757Z,6.18
2022-12-27T06:26:38.721Z,4.85
2022-12-27T06:29:05.944Z,3.70
2022-12-27T06:31:32.923Z,5.57
2022-12-27T06:33:59.992Z,4.30
2022-12-27T06:36:28.721Z,5.10
2022-12-27T06:38:57.089Z,4.20
2022-12-27T06:41:24.212Z,5.90
2022-12-27T06:43:56.740Z,4.53
2022-12-27T06:46:24.876Z,3.60
2022-12-27T06:48:52.146Z,1.17
2022-12-27T06:51:21.068Z,0.65
2022-12-27T06:53:49.356Z,0.85
2022-12-27T06:56:20.456Z,1.53
2022-12-27T06:58:49.353Z,4.88
2022-12-27T07:01:24.504Z,4.00
2022-12-27T07:04:01.020Z,3.50
2022-12-27T07:06:31.058Z,3.45
2022-12-27T07:08:59.910Z,5.03
2022-12-27T07:11:27.202Z,5.40
2022-12-27T07:13:56.156Z,7.03
2022-12-27T07:16:27.340Z,4.83
2022-12-27T07:18:59.232Z,5.55
2022-12-27T07:21:28.982Z,4.82
2022-12-27T07:23:57.109Z,5.60
2022-12-27T07:26:29.920Z,5.85
2022-12-27T07:29:01.088Z,5.63
2022-12-27T07:31:32.245Z,7.43
2022-12-27T07:34:02.087Z,3.85
2022-12-27T07:36:34.471Z,4.07
2022-12-27T07:39:01.697Z,4.78
2022-12-27T07:41:28.756Z,5.43
2022-12-27T07:43:55.935Z,4.35
2022-12-27T07:46:25.850Z,5.60
2022-12-27T07:48:57.933Z,4.20
2022-12-27T07:51:26.174Z,4.30
2022-12-27T07:53:54.095Z,5.00
2022-12-27T07:56:26.475Z,4.72
2022-12-27T07:58:56.795Z,4.13
2022-12-27T08:01:26.494Z,5.55
2022-12-27T08:03:53.953Z,5.30
2022-12-27T08:06:33.333Z,4.97
2022-12-27T08:09:05.203Z,7.45
2022-12-27T08:11:32.244Z,5.07
2022-12-27T08:13:59.198Z,6.27
2022-12-27T08:16:27.071Z,3.75
2022-12-27T08:18:54.528Z,5.38
2022-12-27T08:21:22.586Z,4.38
2022-12-27T08:23:50.145Z,5.82
2022-12-27T08:26:17.632Z,5.30
2022-12-27T08:28:44.660Z,8.00
2022-12-27T08:31:13.446Z,6.57
2022-12-27T08:33:42.012Z,6.32
2022-12-27T08:38:59.140Z,7.50
2022-12-27T08:41:26.227Z,7.32
2022-12-27T08:43:53.198Z,4.18
2022-12-27T08:46:20.247Z,6.70
2022-12-27T08:48:49.000Z,6.93
2022-12-27T08:51:30.012Z,5.90
2022-12-27T08:54:00.472Z,5.67
2022-12-27T08:56:27.461Z,6.60
2022-12-27T08:58:54.623Z,7.53
2022-12-27T09:01:22.462Z,8.60
2022-12-27T09:03:49.576Z,5.80
2022-12-27T09:06:22.536Z,5.88
2022-12-27T09:08:51.163Z,6.82
2022-12-27T09:11:24.560Z,9.55
2022-12-27T09:13:51.993Z,7.57
2022-12-27T09:16:23.155Z,6.70
2022-12-27T09:18:53.422Z,7.43
2022-12-27T09:21:23.387Z,6.80
2022-12-27T09:23:51.656Z,4.45
2022-12-27T09:26:26.446Z,6.78
2022-12-27T09:28:54.704Z,6.25
2022-12-27T09:31:23.142Z,6.95
2022-12-27T09:33:50.229Z,6.80
2022-12-27T09:36:20.928Z,6.20
2022-12-27T09:38:49.781Z,4.57
2022-12-27T09:44:56.671Z,6.60
2022-12-27T09:47:41.696Z,3.90
2022-12-27T09:50:30.443Z,5.80
2022-12-27T09:53:39.402Z,6.60
2022-12-27T09:56:10.038Z,6.50
2022-12-27T09:59:24.090Z,5.03
2022-12-27T10:01:51.817Z,7.80
2022-12-27T10:04:19.798Z,5.65
2022-12-27T10:06:49.512Z,6.70
2022-12-27T10:09:52.907Z,7.40
2022-12-27T10:12:46.236Z,5.70
2022-12-27T10:16:05.363Z,4.22
2022-12-27T10:19:10.342Z,7.18
2022-12-27T10:21:51.538Z,5.60
2022-12-27T10:24:23.982Z,7.00
2022-12-27T10:26:54.813Z,5.07
2022-12-27T10:29:25.581Z,4.20
2022-12-27T10:31:53.028Z,7.57
2022-12-27T10:34:27.013Z,4.68
2022-12-27T10:36:54.203Z,4.72
2022-12-27T10:39:35.324Z,3.63
2022-12-27T10:42:41.967Z,5.70
2022-12-27T10:45:28.511Z,5.85
2022-12-27T10:48:16.585Z,4.43
2022-12-27T10:50:59.635Z,7.03
2022-12-27T10:53:47.641Z,5.97
2022-12-27T10:56:30.403Z,5.57
2022-12-27T10:59:24.014Z,6.03
2022-12-27T11:02:00.309Z,5.72
2022-12-27T11:04:29.943Z,7.00
2022-12-27T11:07:00.042Z,6.03
2022-12-27T11:09:32.239Z,5.78
2022-12-27T11:12:33.442Z,5.20
2022-12-27T11:15:13.809Z,4.23
2022-12-27T11:18:04.871Z,5.05
2022-12-27T11:20:44.767Z,5.07
2022-12-27T11:23:18.774Z,6.55
2022-12-27T11:26:01.544Z,5.40
2022-12-27T11:29:00.651Z,5.97
2022-12-27T11:31:48.043Z,5.45
2022-12-27T11:34:32.639Z,5.20
2022-12-27T11:37:16.330Z,5.90
2022-12-27T11:39:46.519Z,6.68
2022-12-27T11:42:28.295Z,5.73
2022-12-27T11:45:22.542Z,3.45
2022-12-27T11:48:06.608Z,3.13
2022-12-27T11:51:09.587Z,4.05
2022-12-27T11:54:02.372Z,4.88
2022-12-27T11:56:32.288Z,5.93
2022-12-27T11:59:18.182Z,9.38
2022-12-27T12:02:17.449Z,5.32
2022-12-27T12:05:06.584Z,5.20
2022-12-27T12:08:36.926Z,4.35
2022-12-27T12:11:39.877Z,4.22
2022-12-27T12:14:55.201Z,5.43
2022-12-27T12:17:46.472Z,6.78
2022-12-27T12:20:39.169Z,3.60
2022-12-27T12:23:27.328Z,5.85
2022-12-27T12:26:22.673Z,7.05
2022-12-27T12:29:17.216Z,6.13
2022-12-27T12:32:17.554Z,4.50
2022-12-27T12:35:12.067Z,6.70
2022-12-27T12:38:19.950Z,5.20
2022-12-27T12:41:18.790Z,6.03
2022-12-27T12:44:46.616Z,5.10
2022-12-27T12:47:53.168Z,4.93
2022-12-27T12:50:32.186Z,5.53
2022-12-27T12:53:26.023Z,5.72
2022-12-27T12:56:27.528Z,6.18
2022-12-27T12:59:09.216Z,4.22
2022-12-27T13:02:19.294Z,5.53
2022-12-27T13:05:12.515Z,5.47
2022-12-27T13:08:18.701Z,7.70
2022-12-27T13:11:21.571Z,6.57
2022-12-27T13:13:57.441Z,7.07
2022-12-27T13:16:39.428Z,4.72
2022-12-27T13:19:57.407Z,5.33
2022-12-27T13:22:39.733Z,6.35
2022-12-27T13:25:31.444Z,3.63
2022-12-27T13:28:16.197Z,6.05
2022-12-27T13:31:07.500Z,5.45
2022-12-27T13:34:15.750Z,5.18
2022-12-27T13:37:12.278Z,6.90
2022-12-27T13:40:07.992Z,4.60
2022-12-27T13:43:18.144Z,4.82
2022-12-27T13:46:29.957Z,4.43
2022-12-27T13:49:01.167Z,4.35
2022-12-27T13:51:52.091Z,5.03
2022-12-27T13:54:33.643Z,6.45
2022-12-27T13:57:36.693Z,4.93
2022-12-27T14:00:21.663Z,6.47
2022-12-27T14:02:57.570Z,4.30
2022-12-27T14:06:14.714Z,4.35
2022-12-27T14:09:10.312Z,6.80
2022-12-27T14:12:30.835Z,5.55
2022-12-27T14:15:04.012Z,5.53
2022-12-27T14:18:06.042Z,6.43
2022-12-27T14:21:11.579Z,4.55
2022-12-27T14:23:50.707Z,5.18
2022-12-27T14:27:08.507Z,6.10
2022-12-27T14:30:12.792Z,3.90
2022-12-27T14:33:25.613Z,5.50
2022-12-27T14:36:38.864Z,6.55
2022-12-27T14:40:03.455Z,3.05
2022-12-27T14:43:07.639Z,7.68
2022-12-27T14:45:40.294Z,7.70
2022-12-27T14:48:30.992Z,5.85
2022-12-27T14:51:58.411Z,5.88
2022-12-27T14:55:06.639Z,5.00
2022-12-27T14:57:55.002Z,5.15
2022-12-27T15:00:25.979Z,4.43
2022-12-27T15:03:35.928Z,3.45
2022-12-27T15:06:29.910Z,5.95
2022-12-27T15:09:09.324Z,5.72
2022-12-27T15:11:55.501Z,3.70
2022-12-27T15:14:47.109Z,6.75
2022-12-27T15:17:36.183Z,4.55
2022-12-27T15:20:20.732Z,5.47
2022-12-27T15:23:13.802Z,6.45
2022-12-27T15:26:02.134Z,4.60
2022-12-27T15:29:04.197Z,5.85
2022-12-27T15:31:51.371Z,5.43
2022-12-27T15:34:45.437Z,6.90
2022-12-27T15:38:01.899Z,6.47
2022-12-27T15:40:34.976Z,5.95
2022-12-27T15:43:45.048Z,6.50
2022-12-27T15:46:50.330Z,6.10
2022-12-27T15:49:50.661Z,6.20
2022-12-27T15:52:44.766Z,4.90
2022-12-27T15:55:21.633Z,5.10
2022-12-27T15:58:24.325Z,5.67
2022-12-27T16:01:22.096Z,5.40
2022-12-27T16:03:55.648Z,6.90
2022-12-27T16:06:34.572Z,5.57
2022-12-27T16:09:23.496Z,4.15
2022-12-27T16:12:08.117Z,5.80
2022-12-27T16:14:41.587Z,4.65
2022-12-27T16:17:50.920Z,5.15
2022-12-27T16:20:20.587Z,5.72
2022-12-27T16:23:04.705Z,5.70
2022-12-27T16:25:34.328Z,3.70
2022-12-27T16:28:04.142Z,4.93
2022-12-27T16:30:47.871Z,5.47
2022-12-27T16:33:26.896Z,8.18
2022-12-27T16:36:12.022Z,5.57
2022-12-27T16:39:03.791Z,7.97
2022-12-27T16:41:42.295Z,6.10
2022-12-27T16:44:24.313Z,14.70
2022-12-27T16:47:00.522Z,21.33
2022-12-27T16:49:57.547Z,14.82
2022-12-27T16:52:47.036Z,11.10
2022-12-27T16:55:44.059Z,8.80
2022-12-27T16:58:35.178Z,8.63
2022-12-27T17:01:19.050Z,7.70
2022-12-27T17:03:49.834Z,7.95
2022-12-27T17:06:35.256Z,5.18
2022-12-27T17:09:11.350Z,5.80
2022-12-27T17:11:50.530Z,7.35
2022-12-27T17:14:28.161Z,7.60
2022-12-27T17:17:23.109Z,9.57
2022-12-27T17:20:02.086Z,8.13
2022-12-27T17:22:35.371Z,8.23
2022-12-27T17:25:03.769Z,9.77
2022-12-27T17:28:08.295Z,13.23
2022-12-27T17:30:56.249Z,12.27
2022-12-27T17:34:04.792Z,13.38
2022-12-27T17:37:18.477Z,8.27
2022-12-27T17:40:10.365Z,9.60
2022-12-27T17:43:09.886Z,10.02
2022-12-27T17:45:50.857Z,10.10
2022-12-27T17:48:31.409Z,8.40
2022-12-27T17:51:12.625Z,9.02
2022-12-27T17:54:11.208Z,7.25
2022-12-27T17:57:19.420Z,8.80
2022-12-27T17:59:50.374Z,8.68
2022-12-27T18:02:27.563Z,6.38
2022-12-27T18:04:57.423Z,6.13
2022-12-27T18:07:30.586Z,8.15
2022-12-27T18:10:04.464Z,6.75
2022-12-27T18:12:38.165Z,7.27
2022-12-27T18:15:09.002Z,5.18
2022-12-27T18:17:54.601Z,8.05
2022-12-27T18:20:30.106Z,4.63
2022-12-27T18:23:03.079Z,6.20
2022-12-27T18:25:44.600Z,5.57
2022-12-27T18:28:33.914Z,7.00
2022-12-27T18:31:22.231Z,6.43
2022-12-27T18:33:53.176Z,6.97
2022-12-27T18:36:29.127Z,6.32
2022-12-27T18:39:25.618Z,5.28
2022-12-27T18:41:54.587Z,11.43
2022-12-27T18:44:28.658Z,16.20
2022-12-27T18:46:59.517Z,22.17
2022-12-27T18:49:36.644Z,23.35
2022-12-27T18:52:25.973Z,19.20
2022-12-27T18:54:53.699Z,15.05
2022-12-27T18:57:37.411Z,14.60
2022-12-27T19:00:13.958Z,9.52
2022-12-27T19:02:43.274Z,11.70
2022-12-27T19:05:25.998Z,10.00
2022-12-27T19:07:58.140Z,10.35
2022-12-27T19:10:28.971Z,7.65
2022-12-27T19:12:57.167Z,8.25
2022-12-27T19:15:37.242Z,9.13
2022-12-27T19:18:19.032Z,8.48
2022-12-27T19:21:00.397Z,8.40
2022-12-27T19:23:34.983Z,5.80
2022-12-27T19:26:17.277Z,7.18
2022-12-27T19:28:46.315Z,6.50
2022-12-27T19:31:22.131Z,6.95
2022-12-27T19:33:59.239Z,6.65
2022-12-27T19:36:40.809Z,6.75
2022-12-27T19:39:21.747Z,8.38
2022-12-27T19:41:49.880Z,8.40
2022-12-27T19:44:17.483Z,7.43
2022-12-27T19:46:45.056Z,8.93
2022-12-27T19:51:59.568Z,8.02
2022-12-27T19:54:26.637Z,7.93
2022-12-27T19:56:53.752Z,6.65
2022-12-27T19:59:24.159Z,6.82
2022-12-27T20:01:52.564Z,6.38
2022-12-27T20:04:19.907Z,6.82
2022-12-27T20:06:49.080Z,7.30
2022-12-27T20:09:18.869Z,6.72
2022-12-27T20:11:48.502Z,6.88
2022-12-27T20:14:17.505Z,6.20
2022-12-27T20:16:46.344Z,6.13
2022-12-27T20:19:16.534Z,8.00
2022-12-27T20:21:43.940Z,5.95
2022-12-27T20:24:12.362Z,6.03
2022-12-27T20:26:40.652Z,5.80
2022-12-27T20:29:07.962Z,6.65
2022-12-27T20:31:43.825Z,6.05
2022-12-27T20:34:12.841Z,10.53
2022-12-27T20:36:41.504Z,13.35
2022-12-27T20:39:08.607Z,13.87
2022-12-27T20:41:35.672Z,11.70
2022-12-27T20:44:03.147Z,8.93
2022-12-27T20:46:30.247Z,10.27
2022-12-27T20:48:57.627Z,11.23
2022-12-27T20:51:28.388Z,12.07
2022-12-27T20:53:58.084Z,7.15
2022-12-27T20:56:25.681Z,8.48
2022-12-27T20:58:53.569Z,14.70
2022-12-27T21:01:25.343Z,8.80
2022-12-27T21:03:54.189Z,8.95
2022-12-27T21:06:25.811Z,7.30
2022-12-27T21:08:57.104Z,7.05
2022-12-27T21:11:31.358Z,9.73
2022-12-27T21:14:00.393Z,7.40
2022-12-27T21:16:29.653Z,7.32
2022-12-27T21:18:56.998Z,6.53
2022-12-27T21:21:28.239Z,9.95
2022-12-27T21:23:59.642Z,6.40
2022-12-27T21:26:30.558Z,6.38
2022-12-27T21:28:59.798Z,7.93
2022-12-27T21:31:28.132Z,5.82
2022-12-27T21:33:55.396Z,6.53
2022-12-27T21:36:25.256Z,6.15
2022-12-27T21:38:53.791Z,7.95
2022-12-27T21:41:29.897Z,7.05
2022-12-27T21:43:57.460Z,6.83
2022-12-27T21:46:38.375Z,6.32
2022-12-27T21:49:13.105Z,6.25
2022-12-27T21:51:42.104Z,7.60
2022-12-27T21:54:10.698Z,6.00
2022-12-27T21:56:38.076Z,7.60
2022-12-27T21:59:10.832Z,7.07
2022-12-27T22:01:51.522Z,5.17
2022-12-27T22:04:22.711Z,5.75
2022-12-27T22:06:50.384Z,6.05
2022-12-27T22:09:19.095Z,6.10
2022-12-27T22:11:46.463Z,8.38
2022-12-27T22:14:13.525Z,4.60
2022-12-27T22:16:40.745Z,5.22
2022-12-27T22:19:10.963Z,4.67
2022-12-27T22:21:40.098Z,4.90
2022-12-27T22:24:10.844Z,4.40
2022-12-27T22:26:38.101Z,6.47
2022-12-27T22:29:06.449Z,6.07
2022-12-27T22:31:36.732Z,5.45
2022-12-27T22:34:05.048Z,6.40
2022-12-27T22:36:32.524Z,4.55
2022-12-27T22:39:00.329Z,6.70
2022-12-27T22:41:33.898Z,6.75
2022-12-27T22:44:11.734Z,4.87
2022-12-27T22:47:06.846Z,5.50
2022-12-27T22:49:26.578Z,4.68
2022-12-27T22:51:53.507Z,5.55
2022-12-27T22:54:20.570Z,5.40
2022-12-27T22:57:07.535Z,6.57
2022-12-27T22:59:34.590Z,5.35
2022-12-27T23:02:01.661Z,6.03
2022-12-27T23:04:29.328Z,5.93
2022-12-27T23:06:56.471Z,4.60
2022-12-27T23:09:23.445Z,4.05
2022-12-27T23:11:50.669Z,5.03
2022-12-27T23:14:17.745Z,6.65
2022-12-27T23:16:49.355Z,5.85
2022-12-27T23:19:20.805Z,5.57
2022-12-27T23:21:48.907Z,4.18
2022-12-27T23:24:16.529Z,5.53
2022-12-27T23:26:43.747Z,5.93
2022-12-27T23:29:15.130Z,5.28
2022-12-27T23:31:54.913Z,7.25
2022-12-27T23:34:28.319Z,5.63
2022-12-27T23:37:01.047Z,5.80
2022-12-27T23:39:28.297Z,4.43
2022-12-27T23:41:55.711Z,5.03
2022-12-27T23:44:33.187Z,4.93
2022-12-27T23:47:03.757Z,4.82
2022-12-27T23:49:31.030Z,5.40
2022-12-27T23:51:58.022Z,7.05
2022-12-27T23:54:24.955Z,4.18
2022-12-27T23:56:51.913Z,5.22
2022-12-27T23:59:18.995Z,4.47
